Terminal Aerodrome Forecast
Issued by NWS

Current Version | Previous Version | Graphics & Text | Print | Product List | Glossary On
Versions: 1 2 3 4 5 6 7 8 9 10 11 12 13 14 15 16 17 18 19 20 21 22 23 24 25 26 27 28 29 30 31 32 33 34 35 36 37 38 39 40 41
000
FTUS41 KRNK 271126
TAFLWB
TAF
KLWB 271126Z 2712/2812 22005KT 4SM BR VCSH BKN080
     FM271300 24005KT P6SM VCSH SCT050 BKN200
     FM271600 26006KT P6SM SCT050 BKN200
     FM272000 25008KT P6SM VCTS BKN040CB PROB30 2721/2723 VRB25G35KT
      2SM TSRA BKN025CB
     FM272300 26007KT P6SM -SHRA VCTS BKN050CB
     FM280400 26008KT P6SM BKN050=

USA.gov is the U.S. government's official web portal to all federal, state and local government web resources and services.